sensor_id;sensor_type;location;lat;lon;timestamp;temperature;humidity
6752;DHT22;3413;47.680;9.166;2023-11-22T00:04:10;11.60;79.90
6752;DHT22;3413;47.680;9.166;2023-11-22T00:09:12;11.60;79.80
6752;DHT22;3413;47.680;9.166;2023-11-22T00:14:14;11.50;79.70
6752;DHT22;3413;47.680;9.166;2023-11-22T00:19:16;11.50;79.70
6752;DHT22;3413;47.680;9.166;2023-11-22T00:24:19;11.50;79.80
6752;DHT22;3413;47.680;9.166;2023-11-22T00:29:22;11.50;79.90
6752;DHT22;3413;47.680;9.166;2023-11-22T00:34:25;11.50;80.00
6752;DHT22;3413;47.680;9.166;2023-11-22T00:39:26;11.60;80.00
6752;DHT22;3413;47.680;9.166;2023-11-22T00:44:29;11.70;80.10
6752;DHT22;3413;47.680;9.166;2023-11-22T00:49:31;11.70;80.10
6752;DHT22;3413;47.680;9.166;2023-11-22T00:54:33;11.80;80.10
6752;DHT22;3413;47.680;9.166;2023-11-22T00:59:35;11.90;80.20
6752;DHT22;3413;47.680;9.166;2023-11-22T01:04:37;11.90;80.20
6752;DHT22;3413;47.680;9.166;2023-11-22T01:09:39;11.90;80.10
6752;DHT22;3413;47.680;9.166;2023-11-22T01:14:41;11.80;80.10
6752;DHT22;3413;47.680;9.166;2023-11-22T01:19:43;11.80;80.30
6752;DHT22;3413;47.680;9.166;2023-11-22T01:24:45;11.90;80.40
6752;DHT22;3413;47.680;9.166;2023-11-22T01:29:47;11.90;80.40
6752;DHT22;3413;47.680;9.166;2023-11-22T01:34:49;12.00;80.20
6752;DHT22;3413;47.680;9.166;2023-11-22T01:39:51;12.00;79.80
6752;DHT22;3413;47.680;9.166;2023-11-22T01:44:54;12.10;80.00
6752;DHT22;3413;47.680;9.166;2023-11-22T01:49:56;12.00;80.00
6752;DHT22;3413;47.680;9.166;2023-11-22T01:55:00;12.10;80.10
6752;DHT22;3413;47.680;9.166;2023-11-22T02:00:06;12.00;80.00
6752;DHT22;3413;47.680;9.166;2023-11-22T02:05:16;12.00;80.10
6752;DHT22;3413;47.680;9.166;2023-11-22T02:10:19;12.00;80.10
6752;DHT22;3413;47.680;9.166;2023-11-22T02:15:22;12.00;80.20
6752;DHT22;3413;47.680;9.166;2023-11-22T02:20:24;12.00;80.20
6752;DHT22;3413;47.680;9.166;2023-11-22T02:25:26;12.00;80.20
6752;DHT22;3413;47.680;9.166;2023-11-22T02:30:28;12.00;80.20
6752;DHT22;3413;47.680;9.166;2023-11-22T02:35:30;12.00;80.30
6752;DHT22;3413;47.680;9.166;2023-11-22T02:40:34;12.00;80.20
6752;DHT22;3413;47.680;9.166;2023-11-22T02:45:36;12.00;80.30
6752;DHT22;3413;47.680;9.166;2023-11-22T02:50:38;12.00;80.30
6752;DHT22;3413;47.680;9.166;2023-11-22T02:55:41;12.00;80.30
6752;DHT22;3413;47.680;9.166;2023-11-22T03:00:43;12.10;80.30
6752;DHT22;3413;47.680;9.166;2023-11-22T03:05:45;12.10;80.30
6752;DHT22;3413;47.680;9.166;2023-11-22T03:10:47;12.10;80.40
6752;DHT22;3413;47.680;9.166;2023-11-22T03:15:49;12.10;80.40
6752;DHT22;3413;47.680;9.166;2023-11-22T03:20:51;12.10;80.30
6752;DHT22;3413;47.680;9.166;2023-11-22T03:25:56;12.10;80.40
6752;DHT22;3413;47.680;9.166;2023-11-22T03:30:58;12.10;80.40
6752;DHT22;3413;47.680;9.166;2023-11-22T03:36:01;12.10;80.40
6752;DHT22;3413;47.680;9.166;2023-11-22T03:41:05;12.00;80.30
6752;DHT22;3413;47.680;9.166;2023-11-22T03:46:07;12.00;80.30
6752;DHT22;3413;47.680;9.166;2023-11-22T03:51:09;11.90;80.20
6752;DHT22;3413;47.680;9.166;2023-11-22T03:56:11;11.80;80.20
6752;DHT22;3413;47.680;9.166;2023-11-22T04:01:13;11.70;80.20
6752;DHT22;3413;47.680;9.166;2023-11-22T04:06:16;11.80;80.30
6752;DHT22;3413;47.680;9.166;2023-11-22T04:11:18;11.70;80.20
6752;DHT22;3413;47.680;9.166;2023-11-22T04:16:20;11.70;80.30
6752;DHT22;3413;47.680;9.166;2023-11-22T04:21:22;11.70;80.30
6752;DHT22;3413;47.680;9.166;2023-11-22T04:26:25;11.60;80.30
6752;DHT22;3413;47.680;9.166;2023-11-22T04:31:28;11.60;80.30
6752;DHT22;3413;47.680;9.166;2023-11-22T04:36:30;11.50;80.20
6752;DHT22;3413;47.680;9.166;2023-11-22T04:41:32;11.40;80.20
6752;DHT22;3413;47.680;9.166;2023-11-22T04:46:34;11.40;80.10
6752;DHT22;3413;47.680;9.166;2023-11-22T04:51:36;11.30;80.10
6752;DHT22;3413;47.680;9.166;2023-11-22T04:56:38;11.30;80.10
6752;DHT22;3413;47.680;9.166;2023-11-22T05:01:40;11.30;80.20
6752;DHT22;3413;47.680;9.166;2023-11-22T05:06:42;11.30;80.10
6752;DHT22;3413;47.680;9.166;2023-11-22T05:11:45;11.30;80.90
6752;DHT22;3413;47.680;9.166;2023-11-22T05:16:47;11.20;79.90
6752;DHT22;3413;47.680;9.166;2023-11-22T05:21:49;11.10;80.00
6752;DHT22;3413;47.680;9.166;2023-11-22T05:26:51;11.10;80.10
6752;DHT22;3413;47.680;9.166;2023-11-22T05:31:53;11.10;80.10
6752;DHT22;3413;47.680;9.166;2023-11-22T05:36:55;11.10;80.10
6752;DHT22;3413;47.680;9.166;2023-11-22T05:41:57;11.10;80.10
6752;DHT22;3413;47.680;9.166;2023-11-22T05:46:59;11.10;80.00
6752;DHT22;3413;47.680;9.166;2023-11-22T05:52:01;11.10;79.90
6752;DHT22;3413;47.680;9.166;2023-11-22T05:57:03;11.20;80.10
6752;DHT22;3413;47.680;9.166;2023-11-22T06:02:06;11.20;80.10
6752;DHT22;3413;47.680;9.166;2023-11-22T06:07:08;11.20;80.00
6752;DHT22;3413;47.680;9.166;2023-11-22T06:12:10;11.10;79.90
6752;DHT22;3413;47.680;9.166;2023-11-22T06:17:12;10.90;79.60
6752;DHT22;3413;47.680;9.166;2023-11-22T06:22:15;10.80;79.70
6752;DHT22;3413;47.680;9.166;2023-11-22T06:27:18;10.70;79.60
6752;DHT22;3413;47.680;9.166;2023-11-22T06:32:20;10.60;79.70
6752;DHT22;3413;47.680;9.166;2023-11-22T06:37:22;10.60;79.60
6752;DHT22;3413;47.680;9.166;2023-11-22T06:42:24;10.50;79.70
6752;DHT22;3413;47.680;9.166;2023-11-22T06:47:26;10.50;79.60
6752;DHT22;3413;47.680;9.166;2023-11-22T06:52:31;10.50;79.40
6752;DHT22;3413;47.680;9.166;2023-11-22T06:57:37;10.40;79.20
6752;DHT22;3413;47.680;9.166;2023-11-22T07:02:39;10.30;79.30
6752;DHT22;3413;47.680;9.166;2023-11-22T07:07:41;10.10;79.20
6752;DHT22;3413;47.680;9.166;2023-11-22T07:12:43;10.10;79.40
6752;DHT22;3413;47.680;9.166;2023-11-22T07:17:45;10.00;79.20
6752;DHT22;3413;47.680;9.166;2023-11-22T07:22:47;10.00;79.10
6752;DHT22;3413;47.680;9.166;2023-11-22T07:27:56;9.90;80.30
6752;DHT22;3413;47.680;9.166;2023-11-22T07:32:58;9.80;80.20
6752;DHT22;3413;47.680;9.166;2023-11-22T07:38:01;9.80;80.10
6752;DHT22;3413;47.680;9.166;2023-11-22T07:43:05;9.80;80.30
6752;DHT22;3413;47.680;9.166;2023-11-22T07:48:07;9.70;80.30
6752;DHT22;3413;47.680;9.166;2023-11-22T07:53:12;9.70;80.10
6752;DHT22;3413;47.680;9.166;2023-11-22T07:58:15;9.70;80.10
6752;DHT22;3413;47.680;9.166;2023-11-22T08:03:17;9.60;79.80
6752;DHT22;3413;47.680;9.166;2023-11-22T08:08:25;9.50;79.80
6752;DHT22;3413;47.680;9.166;2023-11-22T08:13:27;9.50;79.80
6752;DHT22;3413;47.680;9.166;2023-11-22T08:18:30;9.40;79.70
6752;DHT22;3413;47.680;9.166;2023-11-22T08:23:32;9.50;79.20
6752;DHT22;3413;47.680;9.166;2023-11-22T08:28:34;9.50;79.60
6752;DHT22;3413;47.680;9.166;2023-11-22T08:33:39;9.50;79.60
6752;DHT22;3413;47.680;9.166;2023-11-22T08:38:41;9.40;79.60
6752;DHT22;3413;47.680;9.166;2023-11-22T08:43:45;9.40;79.50
6752;DHT22;3413;47.680;9.166;2023-11-22T08:48:50;9.30;79.50
6752;DHT22;3413;47.680;9.166;2023-11-22T08:53:54;9.20;79.30
6752;DHT22;3413;47.680;9.166;2023-11-22T08:58:57;9.30;79.50
6752;DHT22;3413;47.680;9.166;2023-11-22T09:03:58;9.40;79.50
6752;DHT22;3413;47.680;9.166;2023-11-22T09:09:00;9.40;79.60
6752;DHT22;3413;47.680;9.166;2023-11-22T09:14:03;9.20;79.40
6752;DHT22;3413;47.680;9.166;2023-11-22T09:19:06;9.20;79.60
6752;DHT22;3413;47.680;9.166;2023-11-22T09:24:09;9.30;79.60
6752;DHT22;3413;47.680;9.166;2023-11-22T09:29:12;9.20;79.40
6752;DHT22;3413;47.680;9.166;2023-11-22T09:34:16;9.20;79.30
6752;DHT22;3413;47.680;9.166;2023-11-22T09:39:18;9.20;79.40
6752;DHT22;3413;47.680;9.166;2023-11-22T09:44:23;9.10;79.80
6752;DHT22;3413;47.680;9.166;2023-11-22T09:49:29;9.00;79.20
6752;DHT22;3413;47.680;9.166;2023-11-22T09:54:32;9.10;79.20
6752;DHT22;3413;47.680;9.166;2023-11-22T09:59:36;9.00;79.40
6752;DHT22;3413;47.680;9.166;2023-11-22T10:04:40;9.10;79.50
6752;DHT22;3413;47.680;9.166;2023-11-22T10:09:42;9.10;79.30
6752;DHT22;3413;47.680;9.166;2023-11-22T18:53:06;8.20;76.70
6752;DHT22;3413;47.680;9.166;2023-11-22T18:58:08;8.10;76.60
6752;DHT22;3413;47.680;9.166;2023-11-22T19:03:10;8.00;76.70
6752;DHT22;3413;47.680;9.166;2023-11-22T19:08:12;8.00;76.80
6752;DHT22;3413;47.680;9.166;2023-11-22T19:13:14;8.10;76.80
6752;DHT22;3413;47.680;9.166;2023-11-22T19:18:16;8.10;76.70
6752;DHT22;3413;47.680;9.166;2023-11-22T19:23:18;8.10;76.70
6752;DHT22;3413;47.680;9.166;2023-11-22T19:28:20;8.20;76.70
6752;DHT22;3413;47.680;9.166;2023-11-22T19:33:22;8.20;76.80
6752;DHT22;3413;47.680;9.166;2023-11-22T19:38:24;8.20;76.80
6752;DHT22;3413;47.680;9.166;2023-11-22T19:43:30;8.40;76.90
6752;DHT22;3413;47.680;9.166;2023-11-22T19:48:32;8.30;76.70
6752;DHT22;3413;47.680;9.166;2023-11-22T19:53:34;8.30;76.80
6752;DHT22;3413;47.680;9.166;2023-11-22T19:58:40;8.40;76.80
6752;DHT22;3413;47.680;9.166;2023-11-22T20:03:41;8.40;76.80
6752;DHT22;3413;47.680;9.166;2023-11-22T20:08:43;8.50;76.70
6752;DHT22;3413;47.680;9.166;2023-11-22T20:13:45;8.40;76.60
6752;DHT22;3413;47.680;9.166;2023-11-22T20:18:47;8.40;76.60
6752;DHT22;3413;47.680;9.166;2023-11-22T20:23:51;8.50;76.70
6752;DHT22;3413;47.680;9.166;2023-11-22T20:28:53;8.40;76.70
6752;DHT22;3413;47.680;9.166;2023-11-22T20:33:55;8.40;76.70
6752;DHT22;3413;47.680;9.166;2023-11-22T20:38:57;8.40;76.80
6752;DHT22;3413;47.680;9.166;2023-11-22T20:43:59;8.40;76.70
6752;DHT22;3413;47.680;9.166;2023-11-22T20:49:01;8.30;76.60
6752;DHT22;3413;47.680;9.166;2023-11-22T20:54:04;8.30;76.70
6752;DHT22;3413;47.680;9.166;2023-11-22T20:59:08;8.30;76.60
6752;DHT22;3413;47.680;9.166;2023-11-22T21:04:11;8.30;76.60
6752;DHT22;3413;47.680;9.166;2023-11-22T21:09:16;8.30;76.70
6752;DHT22;3413;47.680;9.166;2023-11-22T21:14:19;8.40;76.70
6752;DHT22;3413;47.680;9.166;2023-11-22T21:19:21;8.40;76.70
6752;DHT22;3413;47.680;9.166;2023-11-22T21:24:24;8.40;76.60
6752;DHT22;3413;47.680;9.166;2023-11-22T21:29:25;8.30;76.50
6752;DHT22;3413;47.680;9.166;2023-11-22T21:34:27;8.30;76.60
6752;DHT22;3413;47.680;9.166;2023-11-22T21:39:29;8.30;76.60
6752;DHT22;3413;47.680;9.166;2023-11-22T21:44:31;8.30;76.50
6752;DHT22;3413;47.680;9.166;2023-11-22T21:49:36;8.30;76.50
6752;DHT22;3413;47.680;9.166;2023-11-22T21:54:38;8.20;76.50
6752;DHT22;3413;47.680;9.166;2023-11-22T21:59:41;8.20;76.40
6752;DHT22;3413;47.680;9.166;2023-11-22T22:04:43;8.20;76.60
6752;DHT22;3413;47.680;9.166;2023-11-22T22:09:47;8.20;76.50
6752;DHT22;3413;47.680;9.166;2023-11-22T22:14:49;8.20;76.50
6752;DHT22;3413;47.680;9.166;2023-11-22T22:19:51;8.10;76.40
6752;DHT22;3413;47.680;9.166;2023-11-22T22:24:53;8.20;77.20
6752;DHT22;3413;47.680;9.166;2023-11-22T22:29:55;8.20;76.50
6752;DHT22;3413;47.680;9.166;2023-11-22T22:34:57;8.20;76.50
6752;DHT22;3413;47.680;9.166;2023-11-22T22:39:59;8.20;76.60
6752;DHT22;3413;47.680;9.166;2023-11-22T22:45:01;8.20;76.40
6752;DHT22;3413;47.680;9.166;2023-11-22T22:50:03;8.20;76.40
6752;DHT22;3413;47.680;9.166;2023-11-22T22:55:06;8.10;76.20
6752;DHT22;3413;47.680;9.166;2023-11-22T23:00:09;8.10;76.40
6752;DHT22;3413;47.680;9.166;2023-11-22T23:05:18;8.00;76.20
6752;DHT22;3413;47.680;9.166;2023-11-22T23:10:27;8.00;76.50
6752;DHT22;3413;47.680;9.166;2023-11-22T23:15:29;8.00;76.40
6752;DHT22;3413;47.680;9.166;2023-11-22T23:20:31;8.00;76.40
6752;DHT22;3413;47.680;9.166;2023-11-22T23:25:47;8.10;76.60
6752;DHT22;3413;47.680;9.166;2023-11-22T23:30:49;8.10;76.50
6752;DHT22;3413;47.680;9.166;2023-11-22T23:35:51;8.20;76.50
6752;DHT22;3413;47.680;9.166;2023-11-22T23:40:55;8.20;76.40
6752;DHT22;3413;47.680;9.166;2023-11-22T23:45:58;8.20;76.40
6752;DHT22;3413;47.680;9.166;2023-11-22T23:51:00;8.20;76.30
6752;DHT22;3413;47.680;9.166;2023-11-22T23:56:02;8.20;76.30
